Trefriw, United Kingdom
Current Conditions -  °F | °C
As of 5:50 PM on Thursday 23 Oct 2014 (Local Time) from EGOV Reporting Station
Scattered Clouds Scattered Clouds  
Wind Chill: 59°   Ceiling: Unl
Heat Index: 59°   Visibility: 6mi
Dew Point: 55°   Wind: 26mph
Humidity: 88%   Direction: 200°SSW
Pressure: 29.85"   Gusts: NA
Location:  53.13°N, 3.81°W
Report Text: EGOV 231650Z 20023KT 9999 SCT012 SCT030 15/13 Q1011 GRN NOSIG
Loading
Personal Weather Stations






























Interactive Weather Map
Tropical Storm Tracking
New forecast layout! Learn more

10-Day Weather Forecast

Advertisements
Track Severe Weather on mobile